sensor_id;sensor_type;location;lat;lon;timestamp;temperature;humidity
8965;DHT22;4517;49.020;12.066;2022-12-28T00:01:19;-2.10;99.90
8965;DHT22;4517;49.020;12.066;2022-12-28T00:03:46;-2.10;99.90
8965;DHT22;4517;49.020;12.066;2022-12-28T00:06:12;-2.10;99.90
8965;DHT22;4517;49.020;12.066;2022-12-28T00:08:38;-2.10;99.90
8965;DHT22;4517;49.020;12.066;2022-12-28T00:11:07;-2.20;99.90
8965;DHT22;4517;49.020;12.066;2022-12-28T00:13:34;-2.20;99.90
8965;DHT22;4517;49.020;12.066;2022-12-28T00:16:12;-2.20;99.90
8965;DHT22;4517;49.020;12.066;2022-12-28T00:18:41;-2.10;99.90
8965;DHT22;4517;49.020;12.066;2022-12-28T00:21:06;-2.10;99.90
8965;DHT22;4517;49.020;12.066;2022-12-28T00:23:32;-2.10;99.90
8965;DHT22;4517;49.020;12.066;2022-12-28T00:26:12;-2.20;99.90
8965;DHT22;4517;49.020;12.066;2022-12-28T00:28:39;-2.20;99.90
8965;DHT22;4517;49.020;12.066;2022-12-28T00:31:05;-2.20;99.90
8965;DHT22;4517;49.020;12.066;2022-12-28T00:33:31;-2.10;99.90
8965;DHT22;4517;49.020;12.066;2022-12-28T00:35:59;-2.00;99.90
8965;DHT22;4517;49.020;12.066;2022-12-28T00:38:26;-2.00;99.90
8965;DHT22;4517;49.020;12.066;2022-12-28T00:40:51;-2.00;99.90
8965;DHT22;4517;49.020;12.066;2022-12-28T00:43:17;-2.00;99.90
8965;DHT22;4517;49.020;12.066;2022-12-28T00:45:47;-2.00;99.90
8965;DHT22;4517;49.020;12.066;2022-12-28T00:48:14;-1.90;99.90
8965;DHT22;4517;49.020;12.066;2022-12-28T00:50:40;-2.00;99.90
8965;DHT22;4517;49.020;12.066;2022-12-28T00:53:06;-1.90;99.90
8965;DHT22;4517;49.020;12.066;2022-12-28T00:55:32;-2.00;99.90
8965;DHT22;4517;49.020;12.066;2022-12-28T00:57:59;-2.00;99.90
8965;DHT22;4517;49.020;12.066;2022-12-28T01:00:25;-2.00;99.90
8965;DHT22;4517;49.020;12.066;2022-12-28T01:02:51;-2.00;99.90
8965;DHT22;4517;49.020;12.066;2022-12-28T01:05:17;-2.00;99.90
8965;DHT22;4517;49.020;12.066;2022-12-28T01:07:42;-2.00;99.90
8965;DHT22;4517;49.020;12.066;2022-12-28T01:10:09;-1.90;99.90
8965;DHT22;4517;49.020;12.066;2022-12-28T01:12:35;-1.90;99.90
8965;DHT22;4517;49.020;12.066;2022-12-28T01:15:03;-1.90;99.90
8965;DHT22;4517;49.020;12.066;2022-12-28T01:17:28;-2.00;99.90
8965;DHT22;4517;49.020;12.066;2022-12-28T01:19:54;-2.00;99.90
8965;DHT22;4517;49.020;12.066;2022-12-28T01:22:20;-2.00;99.90
8965;DHT22;4517;49.020;12.066;2022-12-28T01:24:45;-1.90;99.90
8965;DHT22;4517;49.020;12.066;2022-12-28T01:27:11;-1.90;99.90
8965;DHT22;4517;49.020;12.066;2022-12-28T01:29:37;-1.90;99.90
8965;DHT22;4517;49.020;12.066;2022-12-28T01:32:02;-2.00;99.90
8965;DHT22;4517;49.020;12.066;2022-12-28T01:34:28;-1.90;99.90
8965;DHT22;4517;49.020;12.066;2022-12-28T01:36:53;-1.80;99.90
8965;DHT22;4517;49.020;12.066;2022-12-28T01:39:19;-1.80;99.90
8965;DHT22;4517;49.020;12.066;2022-12-28T01:41:44;-1.90;99.90
8965;DHT22;4517;49.020;12.066;2022-12-28T01:46:43;-1.90;99.90
8965;DHT22;4517;49.020;12.066;2022-12-28T01:49:17;-1.80;99.90
8965;DHT22;4517;49.020;12.066;2022-12-28T01:52:17;-1.80;99.90
8965;DHT22;4517;49.020;12.066;2022-12-28T01:54:48;-1.60;99.90
8965;DHT22;4517;49.020;12.066;2022-12-28T01:57:16;-1.50;99.90
8965;DHT22;4517;49.020;12.066;2022-12-28T01:59:48;-1.50;99.90
8965;DHT22;4517;49.020;12.066;2022-12-28T02:02:15;-1.50;99.90
8965;DHT22;4517;49.020;12.066;2022-12-28T02:04:41;-1.50;99.90
8965;DHT22;4517;49.020;12.066;2022-12-28T02:07:07;-1.40;99.90
8965;DHT22;4517;49.020;12.066;2022-12-28T02:09:39;-1.40;99.90
8965;DHT22;4517;49.020;12.066;2022-12-28T02:12:09;-1.40;99.90
8965;DHT22;4517;49.020;12.066;2022-12-28T02:14:38;-1.40;99.90
8965;DHT22;4517;49.020;12.066;2022-12-28T02:17:03;-1.40;99.90
8965;DHT22;4517;49.020;12.066;2022-12-28T02:19:55;-1.50;99.90
8965;DHT22;4517;49.020;12.066;2022-12-28T02:22:46;-1.50;99.90
8965;DHT22;4517;49.020;12.066;2022-12-28T02:25:44;-1.50;99.90
8965;DHT22;4517;49.020;12.066;2022-12-28T02:28:23;-1.60;99.90
8965;DHT22;4517;49.020;12.066;2022-12-28T02:31:05;-1.60;99.90
8965;DHT22;4517;49.020;12.066;2022-12-28T02:33:42;-1.70;99.90
8965;DHT22;4517;49.020;12.066;2022-12-28T02:36:21;-1.60;99.90
8965;DHT22;4517;49.020;12.066;2022-12-28T02:39:03;-1.60;99.90
8965;DHT22;4517;49.020;12.066;2022-12-28T02:41:30;-1.60;99.90
8965;DHT22;4517;49.020;12.066;2022-12-28T02:43:58;-1.60;99.90
8965;DHT22;4517;49.020;12.066;2022-12-28T02:46:27;-1.50;99.90
8965;DHT22;4517;49.020;12.066;2022-12-28T02:52:26;-1.50;99.90
8965;DHT22;4517;49.020;12.066;2022-12-28T02:55:13;-1.50;99.90
8965;DHT22;4517;49.020;12.066;2022-12-28T03:01:22;-1.60;99.90
8965;DHT22;4517;49.020;12.066;2022-12-28T03:09:19;-1.40;99.90
8965;DHT22;4517;49.020;12.066;2022-12-28T03:11:53;-1.40;99.90
8965;DHT22;4517;49.020;12.066;2022-12-28T03:14:33;-1.40;99.90
8965;DHT22;4517;49.020;12.066;2022-12-28T03:17:00;-1.30;99.90
8965;DHT22;4517;49.020;12.066;2022-12-28T03:19:49;-1.30;99.90
8965;DHT22;4517;49.020;12.066;2022-12-28T03:22:37;-1.20;99.90
8965;DHT22;4517;49.020;12.066;2022-12-28T03:25:28;-1.30;99.90
8965;DHT22;4517;49.020;12.066;2022-12-28T03:28:17;-1.20;99.90
8965;DHT22;4517;49.020;12.066;2022-12-28T03:31:06;-1.20;99.90
8965;DHT22;4517;49.020;12.066;2022-12-28T03:33:35;-1.20;99.90
8965;DHT22;4517;49.020;12.066;2022-12-28T03:36:17;-1.30;99.90
8965;DHT22;4517;49.020;12.066;2022-12-28T03:41:33;-1.30;99.90
8965;DHT22;4517;49.020;12.066;2022-12-28T03:44:10;-1.30;99.90
8965;DHT22;4517;49.020;12.066;2022-12-28T03:46:59;-1.40;99.90
8965;DHT22;4517;49.020;12.066;2022-12-28T03:49:27;-1.40;99.90
8965;DHT22;4517;49.020;12.066;2022-12-28T03:51:53;-1.40;99.90
8965;DHT22;4517;49.020;12.066;2022-12-28T03:54:20;-1.30;99.90
8965;DHT22;4517;49.020;12.066;2022-12-28T03:56:48;-1.30;99.90
8965;DHT22;4517;49.020;12.066;2022-12-28T03:59:15;-1.20;99.90
8965;DHT22;4517;49.020;12.066;2022-12-28T04:01:41;-1.20;99.90
8965;DHT22;4517;49.020;12.066;2022-12-28T04:04:06;-1.20;99.90
8965;DHT22;4517;49.020;12.066;2022-12-28T04:06:32;-1.20;99.90
8965;DHT22;4517;49.020;12.066;2022-12-28T04:08:58;-1.20;99.90
8965;DHT22;4517;49.020;12.066;2022-12-28T04:11:24;-1.10;99.90
8965;DHT22;4517;49.020;12.066;2022-12-28T04:13:49;-1.10;99.90
8965;DHT22;4517;49.020;12.066;2022-12-28T04:16:15;-1.10;99.90
8965;DHT22;4517;49.020;12.066;2022-12-28T04:18:41;-1.10;99.90
8965;DHT22;4517;49.020;12.066;2022-12-28T04:21:11;-1.10;99.90
8965;DHT22;4517;49.020;12.066;2022-12-28T04:23:37;-1.00;99.90
8965;DHT22;4517;49.020;12.066;2022-12-28T04:26:04;-1.00;99.90
8965;DHT22;4517;49.020;12.066;2022-12-28T04:28:30;-1.10;99.90
8965;DHT22;4517;49.020;12.066;2022-12-28T04:30:57;-1.10;99.90
8965;DHT22;4517;49.020;12.066;2022-12-28T04:33:23;-1.10;99.90
8965;DHT22;4517;49.020;12.066;2022-12-28T04:35:49;-1.20;99.90
8965;DHT22;4517;49.020;12.066;2022-12-28T04:38:15;-1.20;99.90
8965;DHT22;4517;49.020;12.066;2022-12-28T04:40:40;-1.20;99.90
8965;DHT22;4517;49.020;12.066;2022-12-28T04:43:06;-1.20;99.90
8965;DHT22;4517;49.020;12.066;2022-12-28T04:45:32;-1.20;99.90
8965;DHT22;4517;49.020;12.066;2022-12-28T04:47:57;-1.20;99.90
8965;DHT22;4517;49.020;12.066;2022-12-28T04:50:24;-1.30;99.90
8965;DHT22;4517;49.020;12.066;2022-12-28T04:52:49;-1.30;99.90
8965;DHT22;4517;49.020;12.066;2022-12-28T04:55:15;-1.30;99.90
8965;DHT22;4517;49.020;12.066;2022-12-28T04:57:44;-1.40;99.90
8965;DHT22;4517;49.020;12.066;2022-12-28T05:00:10;-1.30;99.90
8965;DHT22;4517;49.020;12.066;2022-12-28T05:02:36;-1.40;99.90
8965;DHT22;4517;49.020;12.066;2022-12-28T05:05:02;-1.40;99.90
8965;DHT22;4517;49.020;12.066;2022-12-28T05:07:28;-1.40;99.90
8965;DHT22;4517;49.020;12.066;2022-12-28T05:09:53;-1.50;99.90
8965;DHT22;4517;49.020;12.066;2022-12-28T05:12:19;-1.50;99.90
8965;DHT22;4517;49.020;12.066;2022-12-28T05:14:45;-1.50;99.90
8965;DHT22;4517;49.020;12.066;2022-12-28T05:17:11;-1.60;99.90
8965;DHT22;4517;49.020;12.066;2022-12-28T05:19:36;-1.60;99.90
8965;DHT22;4517;49.020;12.066;2022-12-28T05:22:02;-1.60;99.90
8965;DHT22;4517;49.020;12.066;2022-12-28T05:24:28;-1.60;99.90
8965;DHT22;4517;49.020;12.066;2022-12-28T05:26:53;-1.60;99.90
8965;DHT22;4517;49.020;12.066;2022-12-28T05:29:19;-1.60;99.90
8965;DHT22;4517;49.020;12.066;2022-12-28T05:31:45;-1.50;99.90
8965;DHT22;4517;49.020;12.066;2022-12-28T05:34:10;-1.40;99.90
8965;DHT22;4517;49.020;12.066;2022-12-28T05:36:36;-1.30;99.90
8965;DHT22;4517;49.020;12.066;2022-12-28T05:39:04;-1.20;99.90
8965;DHT22;4517;49.020;12.066;2022-12-28T05:41:30;-1.10;99.90
8965;DHT22;4517;49.020;12.066;2022-12-28T05:43:57;-1.00;99.90
8965;DHT22;4517;49.020;12.066;2022-12-28T05:46:27;-0.90;99.90
8965;DHT22;4517;49.020;12.066;2022-12-28T05:48:53;-0.80;99.90
8965;DHT22;4517;49.020;12.066;2022-12-28T05:51:21;-0.70;99.90
8965;DHT22;4517;49.020;12.066;2022-12-28T05:53:47;-0.70;99.90
8965;DHT22;4517;49.020;12.066;2022-12-28T05:56:23;-0.70;99.90
8965;DHT22;4517;49.020;12.066;2022-12-28T05:59:04;-0.60;99.90
8965;DHT22;4517;49.020;12.066;2022-12-28T06:01:33;-0.60;99.90
8965;DHT22;4517;49.020;12.066;2022-12-28T06:04:18;-0.50;99.90
8965;DHT22;4517;49.020;12.066;2022-12-28T06:06:45;-0.50;99.90
8965;DHT22;4517;49.020;12.066;2022-12-28T06:09:11;-0.50;99.90
8965;DHT22;4517;49.020;12.066;2022-12-28T06:11:37;-0.50;99.90
8965;DHT22;4517;49.020;12.066;2022-12-28T06:14:03;-0.40;99.90
8965;DHT22;4517;49.020;12.066;2022-12-28T06:16:31;-0.40;99.90
8965;DHT22;4517;49.020;12.066;2022-12-28T06:18:57;-0.40;99.90
8965;DHT22;4517;49.020;12.066;2022-12-28T06:21:28;-0.40;99.90
8965;DHT22;4517;49.020;12.066;2022-12-28T06:23:56;-0.40;99.90
8965;DHT22;4517;49.020;12.066;2022-12-28T06:26:26;-0.40;99.90
8965;DHT22;4517;49.020;12.066;2022-12-28T06:28:51;-0.30;99.90
8965;DHT22;4517;49.020;12.066;2022-12-28T06:31:25;-0.30;99.90
8965;DHT22;4517;49.020;12.066;2022-12-28T06:33:52;-0.20;99.90
8965;DHT22;4517;49.020;12.066;2022-12-28T06:36:20;-0.20;99.90
8965;DHT22;4517;49.020;12.066;2022-12-28T06:38:47;-0.20;99.90
8965;DHT22;4517;49.020;12.066;2022-12-28T06:41:14;-0.20;99.90
8965;DHT22;4517;49.020;12.066;2022-12-28T06:43:41;-0.20;99.90
8965;DHT22;4517;49.020;12.066;2022-12-28T06:46:08;-0.20;99.90
8965;DHT22;4517;49.020;12.066;2022-12-28T06:48:34;-0.20;99.90
8965;DHT22;4517;49.020;12.066;2022-12-28T06:51:03;-0.20;99.90
8965;DHT22;4517;49.020;12.066;2022-12-28T06:53:31;-0.20;99.90
8965;DHT22;4517;49.020;12.066;2022-12-28T06:55:58;-0.20;99.90
8965;DHT22;4517;49.020;12.066;2022-12-28T06:58:26;-0.10;99.90
8965;DHT22;4517;49.020;12.066;2022-12-28T07:00:53;-0.10;99.90
8965;DHT22;4517;49.020;12.066;2022-12-28T07:03:20;-0.10;99.90
8965;DHT22;4517;49.020;12.066;2022-12-28T07:05:45;-0.10;99.90
8965;DHT22;4517;49.020;12.066;2022-12-28T07:08:11;-0.10;99.90
8965;DHT22;4517;49.020;12.066;2022-12-28T07:10:36;-0.10;99.90
8965;DHT22;4517;49.020;12.066;2022-12-28T07:13:03;-0.10;99.90
8965;DHT22;4517;49.020;12.066;2022-12-28T07:15:29;-0.10;99.90
8965;DHT22;4517;49.020;12.066;2022-12-28T07:17:54;-0.10;99.90
8965;DHT22;4517;49.020;12.066;2022-12-28T07:20:20;0.00;99.90
8965;DHT22;4517;49.020;12.066;2022-12-28T07:22:46;0.00;99.90
8965;DHT22;4517;49.020;12.066;2022-12-28T07:25:11;0.00;99.90
8965;DHT22;4517;49.020;12.066;2022-12-28T07:27:37;0.00;99.90
8965;DHT22;4517;49.020;12.066;2022-12-28T07:30:03;0.00;99.90
8965;DHT22;4517;49.020;12.066;2022-12-28T07:32:29;0.00;99.90
8965;DHT22;4517;49.020;12.066;2022-12-28T07:34:54;0.00;99.90
8965;DHT22;4517;49.020;12.066;2022-12-28T07:37:20;0.00;99.90
8965;DHT22;4517;49.020;12.066;2022-12-28T07:39:45;-0.10;99.90
8965;DHT22;4517;49.020;12.066;2022-12-28T07:42:11;-0.10;99.90
8965;DHT22;4517;49.020;12.066;2022-12-28T07:44:37;-0.10;99.90
8965;DHT22;4517;49.020;12.066;2022-12-28T07:47:06;-0.10;99.90
8965;DHT22;4517;49.020;12.066;2022-12-28T07:49:32;-0.10;99.90
8965;DHT22;4517;49.020;12.066;2022-12-28T07:51:58;-0.10;99.90
8965;DHT22;4517;49.020;12.066;2022-12-28T07:54:23;-0.20;99.90
8965;DHT22;4517;49.020;12.066;2022-12-28T07:56:49;-0.20;99.90
8965;DHT22;4517;49.020;12.066;2022-12-28T07:59:14;-0.20;99.90
8965;DHT22;4517;49.020;12.066;2022-12-28T08:01:40;-0.10;99.90
8965;DHT22;4517;49.020;12.066;2022-12-28T08:04:08;-0.10;99.90
8965;DHT22;4517;49.020;12.066;2022-12-28T08:06:36;0.00;99.90
8965;DHT22;4517;49.020;12.066;2022-12-28T08:09:04;0.10;99.90
8965;DHT22;4517;49.020;12.066;2022-12-28T08:11:33;0.20;99.90
8965;DHT22;4517;49.020;12.066;2022-12-28T08:13:59;0.30;99.90
8965;DHT22;4517;49.020;12.066;2022-12-28T08:16:27;0.30;99.90
8965;DHT22;4517;49.020;12.066;2022-12-28T08:18:54;0.40;99.90
8965;DHT22;4517;49.020;12.066;2022-12-28T08:21:27;0.50;99.90
8965;DHT22;4517;49.020;12.066;2022-12-28T08:23:53;0.60;99.90
8965;DHT22;4517;49.020;12.066;2022-12-28T08:26:31;0.70;99.90
8965;DHT22;4517;49.020;12.066;2022-12-28T08:28:59;0.80;99.90
8965;DHT22;4517;49.020;12.066;2022-12-28T08:31:27;0.80;99.90
8965;DHT22;4517;49.020;12.066;2022-12-28T08:33:54;0.80;99.90
8965;DHT22;4517;49.020;12.066;2022-12-28T08:36:20;0.90;99.90
8965;DHT22;4517;49.020;12.066;2022-12-28T08:38:46;1.00;99.90
8965;DHT22;4517;49.020;12.066;2022-12-28T08:41:15;1.10;99.90
8965;DHT22;4517;49.020;12.066;2022-12-28T08:43:41;1.10;99.90
8965;DHT22;4517;49.020;12.066;2022-12-28T08:46:10;1.20;99.90
8965;DHT22;4517;49.020;12.066;2022-12-28T08:48:36;1.30;99.90
8965;DHT22;4517;49.020;12.066;2022-12-28T08:51:07;1.30;99.90
8965;DHT22;4517;49.020;12.066;2022-12-28T08:53:33;1.40;99.90
8965;DHT22;4517;49.020;12.066;2022-12-28T08:56:11;1.40;99.90
8965;DHT22;4517;49.020;12.066;2022-12-28T08:58:38;1.40;99.90
8965;DHT22;4517;49.020;12.066;2022-12-28T09:01:12;1.50;99.90
8965;DHT22;4517;49.020;12.066;2022-12-28T09:03:39;1.60;99.90
8965;DHT22;4517;49.020;12.066;2022-12-28T09:06:08;1.70;99.90
8965;DHT22;4517;49.020;12.066;2022-12-28T09:08:34;1.80;99.90
8965;DHT22;4517;49.020;12.066;2022-12-28T09:11:02;1.90;99.90
8965;DHT22;4517;49.020;12.066;2022-12-28T09:13:28;2.00;99.90
8965;DHT22;4517;49.020;12.066;2022-12-28T09:16:14;2.10;99.90
8965;DHT22;4517;49.020;12.066;2022-12-28T09:18:41;2.00;99.90
8965;DHT22;4517;49.020;12.066;2022-12-28T09:21:18;2.00;99.90
8965;DHT22;4517;49.020;12.066;2022-12-28T09:23:45;2.00;99.90
8965;DHT22;4517;49.020;12.066;2022-12-28T09:28:44;2.00;99.90
8965;DHT22;4517;49.020;12.066;2022-12-28T09:31:10;2.10;99.90
8965;DHT22;4517;49.020;12.066;2022-12-28T09:33:37;2.10;99.90
8965;DHT22;4517;49.020;12.066;2022-12-28T09:36:21;2.10;99.90
8965;DHT22;4517;49.020;12.066;2022-12-28T09:38:48;2.10;99.90
8965;DHT22;4517;49.020;12.066;2022-12-28T09:41:30;2.20;99.90
8965;DHT22;4517;49.020;12.066;2022-12-28T09:50:01;2.20;99.90
8965;DHT22;4517;49.020;12.066;2022-12-28T09:55:33;2.20;99.90
8965;DHT22;4517;49.020;12.066;2022-12-28T09:58:00;2.10;99.90
8965;DHT22;4517;49.020;12.066;2022-12-28T10:00:38;2.10;99.90
8965;DHT22;4517;49.020;12.066;2022-12-28T10:03:19;2.20;99.90
8965;DHT22;4517;49.020;12.066;2022-12-28T10:05:46;2.30;99.90
8965;DHT22;4517;49.020;12.066;2022-12-28T10:08:15;2.30;99.90
8965;DHT22;4517;49.020;12.066;2022-12-28T10:10:42;2.50;99.90
8965;DHT22;4517;49.020;12.066;2022-12-28T10:13:17;2.50;99.90
8965;DHT22;4517;49.020;12.066;2022-12-28T10:15:44;2.60;99.90
8965;DHT22;4517;49.020;12.066;2022-12-28T10:18:14;2.60;99.90
8965;DHT22;4517;49.020;12.066;2022-12-28T10:20:42;2.60;99.90
8965;DHT22;4517;49.020;12.066;2022-12-28T10:23:12;2.50;99.90
8965;DHT22;4517;49.020;12.066;2022-12-28T10:25:39;2.40;99.90
8965;DHT22;4517;49.020;12.066;2022-12-28T10:28:06;2.40;99.90
8965;DHT22;4517;49.020;12.066;2022-12-28T10:30:47;2.40;99.90
8965;DHT22;4517;49.020;12.066;2022-12-28T10:33:17;2.40;99.90
8965;DHT22;4517;49.020;12.066;2022-12-28T10:35:51;2.40;99.90
8965;DHT22;4517;49.020;12.066;2022-12-28T10:38:32;2.30;99.90
8965;DHT22;4517;49.020;12.066;2022-12-28T10:41:10;2.30;99.90
8965;DHT22;4517;49.020;12.066;2022-12-28T10:43:38;2.40;99.90
8965;DHT22;4517;49.020;12.066;2022-12-28T10:46:11;2.40;99.90
8965;DHT22;4517;49.020;12.066;2022-12-28T10:48:42;2.50;99.90
8965;DHT22;4517;49.020;12.066;2022-12-28T10:51:13;2.50;99.90
8965;DHT22;4517;49.020;12.066;2022-12-28T10:53:44;2.70;99.90
8965;DHT22;4517;49.020;12.066;2022-12-28T10:58:42;2.70;99.90
8965;DHT22;4517;49.020;12.066;2022-12-28T11:03:58;2.90;99.90
8965;DHT22;4517;49.020;12.066;2022-12-28T11:06:32;2.90;99.90
8965;DHT22;4517;49.020;12.066;2022-12-28T11:09:16;2.90;99.90
8965;DHT22;4517;49.020;12.066;2022-12-28T11:11:44;2.90;99.90
8965;DHT22;4517;49.020;12.066;2022-12-28T11:14:29;3.00;99.90
8965;DHT22;4517;49.020;12.066;2022-12-28T11:16:55;3.10;99.90
8965;DHT22;4517;49.020;12.066;2022-12-28T11:19:21;3.20;99.90
8965;DHT22;4517;49.020;12.066;2022-12-28T11:21:48;3.40;99.90
8965;DHT22;4517;49.020;12.066;2022-12-28T11:24:15;3.40;99.90
8965;DHT22;4517;49.020;12.066;2022-12-28T11:26:45;3.40;99.90
8965;DHT22;4517;49.020;12.066;2022-12-28T11:29:13;3.40;99.90
8965;DHT22;4517;49.020;12.066;2022-12-28T11:32:04;3.50;99.90
8965;DHT22;4517;49.020;12.066;2022-12-28T11:34:31;3.70;99.90
8965;DHT22;4517;49.020;12.066;2022-12-28T11:36:57;3.80;99.90
8965;DHT22;4517;49.020;12.066;2022-12-28T11:41:52;3.90;99.90
8965;DHT22;4517;49.020;12.066;2022-12-28T11:44:20;3.80;99.90
8965;DHT22;4517;49.020;12.066;2022-12-28T11:46:59;3.80;99.90
8965;DHT22;4517;49.020;12.066;2022-12-28T11:49:28;3.90;99.90
8965;DHT22;4517;49.020;12.066;2022-12-28T12:03:06;4.30;99.90
8965;DHT22;4517;49.020;12.066;2022-12-28T12:10:48;4.10;99.90
8965;DHT22;4517;49.020;12.066;2022-12-28T12:16:00;4.00;99.90
8965;DHT22;4517;49.020;12.066;2022-12-28T12:18:29;4.00;99.90
8965;DHT22;4517;49.020;12.066;2022-12-28T12:21:03;4.10;99.90
8965;DHT22;4517;49.020;12.066;2022-12-28T12:23:41;4.20;99.90
8965;DHT22;4517;49.020;12.066;2022-12-28T12:26:39;4.40;99.90
8965;DHT22;4517;49.020;12.066;2022-12-28T12:29:28;4.50;99.90
8965;DHT22;4517;49.020;12.066;2022-12-28T12:32:03;4.50;99.90
8965;DHT22;4517;49.020;12.066;2022-12-28T12:34:38;4.50;99.90
8965;DHT22;4517;49.020;12.066;2022-12-28T12:42:52;4.40;99.90
8965;DHT22;4517;49.020;12.066;2022-12-28T12:48:00;4.70;99.90
8965;DHT22;4517;49.020;12.066;2022-12-28T12:50:48;4.90;99.90
8965;DHT22;4517;49.020;12.066;2022-12-28T12:53:44;4.90;99.90
8965;DHT22;4517;49.020;12.066;2022-12-28T12:56:26;5.00;99.90
8965;DHT22;4517;49.020;12.066;2022-12-28T12:59:20;5.00;99.90
8965;DHT22;4517;49.020;12.066;2022-12-28T13:01:57;5.10;99.90
8965;DHT22;4517;49.020;12.066;2022-12-28T13:04:30;5.20;99.90
8965;DHT22;4517;49.020;12.066;2022-12-28T13:07:00;5.20;99.90
8965;DHT22;4517;49.020;12.066;2022-12-28T13:09:28;5.30;99.90
8965;DHT22;4517;49.020;12.066;2022-12-28T13:11:55;5.40;99.90
8965;DHT22;4517;49.020;12.066;2022-12-28T13:14:22;5.50;99.90
8965;DHT22;4517;49.020;12.066;2022-12-28T13:16:56;5.60;99.90
8965;DHT22;4517;49.020;12.066;2022-12-28T13:19:25;5.70;99.90
8965;DHT22;4517;49.020;12.066;2022-12-28T13:21:51;5.70;99.90
8965;DHT22;4517;49.020;12.066;2022-12-28T13:24:25;5.70;99.90
8965;DHT22;4517;49.020;12.066;2022-12-28T13:26:52;5.80;99.90
8965;DHT22;4517;49.020;12.066;2022-12-28T13:29:22;6.00;99.90
8965;DHT22;4517;49.020;12.066;2022-12-28T13:31:48;6.10;99.90
8965;DHT22;4517;49.020;12.066;2022-12-28T13:34:28;6.00;99.90
8965;DHT22;4517;49.020;12.066;2022-12-28T13:36:58;6.00;99.90
8965;DHT22;4517;49.020;12.066;2022-12-28T13:41:54;6.10;99.90
8965;DHT22;4517;49.020;12.066;2022-12-28T13:44:47;6.20;99.90
8965;DHT22;4517;49.020;12.066;2022-12-28T13:47:27;6.10;99.90
8965;DHT22;4517;49.020;12.066;2022-12-28T13:50:15;6.00;99.90
8965;DHT22;4517;49.020;12.066;2022-12-28T13:55:14;5.90;99.90
8965;DHT22;4517;49.020;12.066;2022-12-28T13:57:44;5.90;99.90
8965;DHT22;4517;49.020;12.066;2022-12-28T14:00:11;5.80;99.90
8965;DHT22;4517;49.020;12.066;2022-12-28T14:02:40;5.70;99.90
8965;DHT22;4517;49.020;12.066;2022-12-28T14:05:07;5.60;99.90
8965;DHT22;4517;49.020;12.066;2022-12-28T14:07:39;5.60;99.90
8965;DHT22;4517;49.020;12.066;2022-12-28T14:10:05;5.50;99.90
8965;DHT22;4517;49.020;12.066;2022-12-28T14:12:31;5.50;99.90
8965;DHT22;4517;49.020;12.066;2022-12-28T14:14:57;5.40;99.90
8965;DHT22;4517;49.020;12.066;2022-12-28T14:17:23;5.40;99.90
8965;DHT22;4517;49.020;12.066;2022-12-28T14:19:51;5.30;99.90
8965;DHT22;4517;49.020;12.066;2022-12-28T14:22:30;5.20;99.90
8965;DHT22;4517;49.020;12.066;2022-12-28T14:25:08;5.00;99.90
8965;DHT22;4517;49.020;12.066;2022-12-28T14:27:37;5.00;99.90
8965;DHT22;4517;49.020;12.066;2022-12-28T14:30:06;4.90;99.90
8965;DHT22;4517;49.020;12.066;2022-12-28T14:32:34;4.90;99.90
8965;DHT22;4517;49.020;12.066;2022-12-28T14:35:00;4.80;99.90
8965;DHT22;4517;49.020;12.066;2022-12-28T14:37:33;4.70;99.90
8965;DHT22;4517;49.020;12.066;2022-12-28T14:40:04;4.60;99.90
8965;DHT22;4517;49.020;12.066;2022-12-28T14:42:31;4.50;99.90
8965;DHT22;4517;49.020;12.066;2022-12-28T14:44:56;4.30;99.90
8965;DHT22;4517;49.020;12.066;2022-12-28T14:49:58;4.10;99.90
8965;DHT22;4517;49.020;12.066;2022-12-28T14:52:36;4.00;99.90
8965;DHT22;4517;49.020;12.066;2022-12-28T14:55:28;3.90;99.90
8965;DHT22;4517;49.020;12.066;2022-12-28T14:58:02;3.80;99.90
8965;DHT22;4517;49.020;12.066;2022-12-28T15:00:34;3.90;99.90
8965;DHT22;4517;49.020;12.066;2022-12-28T15:05:42;4.00;99.90
8965;DHT22;4517;49.020;12.066;2022-12-28T15:08:09;4.00;99.90
8965;DHT22;4517;49.020;12.066;2022-12-28T15:10:40;4.00;99.90
8965;DHT22;4517;49.020;12.066;2022-12-28T15:13:06;4.10;99.90
8965;DHT22;4517;49.020;12.066;2022-12-28T15:15:32;4.10;99.90
8965;DHT22;4517;49.020;12.066;2022-12-28T15:17:57;4.10;99.90
8965;DHT22;4517;49.020;12.066;2022-12-28T15:20:23;4.10;99.90
8965;DHT22;4517;49.020;12.066;2022-12-28T15:22:48;4.10;99.90
8965;DHT22;4517;49.020;12.066;2022-12-28T15:25:14;4.10;99.90
8965;DHT22;4517;49.020;12.066;2022-12-28T15:27:40;4.10;99.90
8965;DHT22;4517;49.020;12.066;2022-12-28T15:30:06;4.10;99.90
8965;DHT22;4517;49.020;12.066;2022-12-28T15:32:31;4.00;99.90
8965;DHT22;4517;49.020;12.066;2022-12-28T15:34:57;4.00;99.90
8965;DHT22;4517;49.020;12.066;2022-12-28T15:37:22;4.00;99.90
8965;DHT22;4517;49.020;12.066;2022-12-28T15:39:48;4.00;99.90
8965;DHT22;4517;49.020;12.066;2022-12-28T15:42:13;4.00;99.90
8965;DHT22;4517;49.020;12.066;2022-12-28T15:44:39;4.00;99.90
8965;DHT22;4517;49.020;12.066;2022-12-28T15:47:05;4.00;99.90
8965;DHT22;4517;49.020;12.066;2022-12-28T15:49:31;3.90;99.90
8965;DHT22;4517;49.020;12.066;2022-12-28T15:51:56;3.90;99.90
8965;DHT22;4517;49.020;12.066;2022-12-28T15:54:22;3.90;99.90
8965;DHT22;4517;49.020;12.066;2022-12-28T15:56:52;3.80;99.90
8965;DHT22;4517;49.020;12.066;2022-12-28T15:59:18;3.80;99.90
8965;DHT22;4517;49.020;12.066;2022-12-28T16:01:44;3.70;99.90
8965;DHT22;4517;49.020;12.066;2022-12-28T16:04:10;3.60;99.90
8965;DHT22;4517;49.020;12.066;2022-12-28T16:06:36;3.60;99.90
8965;DHT22;4517;49.020;12.066;2022-12-28T16:09:02;3.50;99.90
8965;DHT22;4517;49.020;12.066;2022-12-28T16:11:29;3.50;99.90
8965;DHT22;4517;49.020;12.066;2022-12-28T16:14:00;3.40;99.90
8965;DHT22;4517;49.020;12.066;2022-12-28T16:16:28;3.40;99.90
8965;DHT22;4517;49.020;12.066;2022-12-28T16:18:55;3.30;99.90
8965;DHT22;4517;49.020;12.066;2022-12-28T16:21:22;3.30;99.90
8965;DHT22;4517;49.020;12.066;2022-12-28T16:23:48;3.20;99.90
8965;DHT22;4517;49.020;12.066;2022-12-28T16:26:14;3.10;99.90
8965;DHT22;4517;49.020;12.066;2022-12-28T16:28:40;3.10;99.90
8965;DHT22;4517;49.020;12.066;2022-12-28T16:31:07;3.10;99.90
8965;DHT22;4517;49.020;12.066;2022-12-28T16:33:32;3.10;99.90
8965;DHT22;4517;49.020;12.066;2022-12-28T16:35:58;3.20;99.90
8965;DHT22;4517;49.020;12.066;2022-12-28T16:38:26;3.20;99.90
8965;DHT22;4517;49.020;12.066;2022-12-28T16:40:54;3.30;99.90
8965;DHT22;4517;49.020;12.066;2022-12-28T16:43:22;3.30;99.90
8965;DHT22;4517;49.020;12.066;2022-12-28T16:45:47;3.30;99.90
8965;DHT22;4517;49.020;12.066;2022-12-28T16:48:15;3.40;99.90
8965;DHT22;4517;49.020;12.066;2022-12-28T16:50:41;3.40;99.90
8965;DHT22;4517;49.020;12.066;2022-12-28T16:53:07;3.30;99.90
8965;DHT22;4517;49.020;12.066;2022-12-28T16:55:38;3.30;99.90
8965;DHT22;4517;49.020;12.066;2022-12-28T16:58:05;3.30;99.90
8965;DHT22;4517;49.020;12.066;2022-12-28T17:00:31;3.30;99.90
8965;DHT22;4517;49.020;12.066;2022-12-28T17:02:56;3.30;99.90
8965;DHT22;4517;49.020;12.066;2022-12-28T17:05:22;3.30;99.90
8965;DHT22;4517;49.020;12.066;2022-12-28T17:07:47;3.30;99.90
8965;DHT22;4517;49.020;12.066;2022-12-28T17:10:13;3.20;99.90
8965;DHT22;4517;49.020;12.066;2022-12-28T17:12:39;3.20;99.90
8965;DHT22;4517;49.020;12.066;2022-12-28T17:15:06;3.10;99.90
8965;DHT22;4517;49.020;12.066;2022-12-28T17:17:32;3.10;99.90
8965;DHT22;4517;49.020;12.066;2022-12-28T17:19:58;3.10;99.90
8965;DHT22;4517;49.020;12.066;2022-12-28T17:22:24;3.10;99.90
8965;DHT22;4517;49.020;12.066;2022-12-28T17:24:49;3.00;99.90